createdAt,value
2023-04-27T00:00:15.464Z,11.32
2023-04-27T00:02:16.940Z,11.63
2023-04-27T00:04:18.757Z,11.13
2023-04-27T00:06:20.517Z,10.68
2023-04-27T00:08:22.033Z,11.13
2023-04-27T00:10:23.648Z,10.98
2023-04-27T00:12:25.045Z,11.05
2023-04-27T00:14:26.490Z,11.70
2023-04-27T00:16:28.006Z,11.05
2023-04-27T00:18:32.827Z,11.82
2023-04-27T00:20:34.232Z,9.88
2023-04-27T00:22:35.788Z,9.30
2023-04-27T00:24:37.260Z,9.35
2023-04-27T00:26:38.681Z,9.07
2023-04-27T00:28:40.386Z,9.13
2023-04-27T00:30:41.962Z,9.52
2023-04-27T00:32:43.414Z,9.23
2023-04-27T00:34:45.032Z,9.55
2023-04-27T00:36:46.595Z,9.23
2023-04-27T00:38:48.026Z,9.45
2023-04-27T00:40:49.609Z,9.32
2023-04-27T00:42:51.145Z,9.40
2023-04-27T00:44:52.558Z,9.07
2023-04-27T00:46:54.546Z,8.65
2023-04-27T00:48:56.572Z,9.70
2023-04-27T00:50:58.260Z,9.38
2023-04-27T00:52:59.888Z,9.10
2023-04-27T00:55:03.160Z,9.55
2023-04-27T00:57:04.864Z,9.45
2023-04-27T00:59:06.433Z,8.80
2023-04-27T01:01:07.992Z,9.50
2023-04-27T01:03:09.710Z,9.77
2023-04-27T01:05:12.089Z,9.65
2023-04-27T01:07:13.582Z,10.95
2023-04-27T01:09:15.283Z,10.80
2023-04-27T01:11:17.205Z,10.30
2023-04-27T01:13:18.759Z,10.45
2023-04-27T01:15:20.143Z,12.27
2023-04-27T01:17:21.702Z,11.73
2023-04-27T01:19:23.280Z,11.93
2023-04-27T01:21:25.262Z,11.80
2023-04-27T01:23:26.759Z,11.38
2023-04-27T01:25:28.236Z,12.48
2023-04-27T01:27:29.662Z,12.00
2023-04-27T01:29:31.145Z,11.85
2023-04-27T01:31:32.724Z,10.73
2023-04-27T01:33:34.168Z,10.82
2023-04-27T01:35:35.756Z,10.00
2023-04-27T01:37:37.373Z,11.38
2023-04-27T01:39:38.912Z,10.48
2023-04-27T01:41:40.298Z,11.32
2023-04-27T01:43:41.891Z,10.65
2023-04-27T01:45:43.300Z,11.50
2023-04-27T01:47:44.825Z,10.52
2023-04-27T01:49:46.475Z,11.13
2023-04-27T01:51:47.864Z,10.23
2023-04-27T01:53:49.528Z,11.13
2023-04-27T01:55:50.920Z,10.68
2023-04-27T01:57:52.404Z,10.40
2023-04-27T01:59:53.987Z,11.52
2023-04-27T02:01:55.594Z,11.18
2023-04-27T02:03:57.393Z,12.50
2023-04-27T02:05:59.422Z,10.90
2023-04-27T02:08:01.032Z,10.82
2023-04-27T02:10:02.588Z,11.32
2023-04-27T02:12:04.460Z,10.88
2023-04-27T02:14:05.888Z,10.55
2023-04-27T02:16:07.564Z,10.23
2023-04-27T02:18:09.171Z,18.42
2023-04-27T02:20:11.223Z,12.32
2023-04-27T02:22:12.988Z,13.13
2023-04-27T02:24:14.574Z,12.20
2023-04-27T02:26:20.602Z,12.35
2023-04-27T02:28:22.042Z,12.85
2023-04-27T02:30:24.157Z,11.52
2023-04-27T02:32:26.214Z,12.05
2023-04-27T02:34:27.623Z,12.60
2023-04-27T02:36:29.509Z,12.57
2023-04-27T02:38:31.071Z,11.63
2023-04-27T02:40:32.595Z,12.63
2023-04-27T02:42:34.182Z,13.35
2023-04-27T02:44:35.830Z,13.90
2023-04-27T02:46:37.234Z,14.95
2023-04-27T02:48:38.721Z,17.27
2023-04-27T02:50:41.323Z,17.90
2023-04-27T02:52:42.759Z,20.88
2023-04-27T02:54:44.237Z,23.17
2023-04-27T02:56:45.623Z,21.20
2023-04-27T02:58:47.050Z,22.23
2023-04-27T03:00:53.966Z,23.27
2023-04-27T03:02:56.118Z,23.05
2023-04-27T03:04:57.773Z,25.05
2023-04-27T03:06:59.191Z,25.05
2023-04-27T03:09:01.020Z,20.92
2023-04-27T03:11:02.419Z,20.92
2023-04-27T03:13:04.063Z,19.95
2023-04-27T03:15:05.864Z,19.25
2023-04-27T03:17:07.295Z,19.60
2023-04-27T03:19:08.943Z,23.20
2023-04-27T03:21:11.716Z,23.13
2023-04-27T03:23:13.188Z,23.65
2023-04-27T03:25:14.769Z,22.23
2023-04-27T03:27:16.319Z,23.33
2023-04-27T03:29:18.676Z,22.50
2023-04-27T03:31:20.194Z,23.83
2023-04-27T03:33:21.753Z,26.48
2023-04-27T03:35:23.184Z,25.27
2023-04-27T03:37:24.751Z,19.35
2023-04-27T03:39:27.330Z,19.77
2023-04-27T03:41:28.773Z,20.98
2023-04-27T03:43:30.449Z,20.33
2023-04-27T03:45:31.949Z,18.63
2023-04-27T03:47:33.471Z,21.20
2023-04-27T03:49:35.844Z,23.30
2023-04-27T03:51:37.263Z,22.38
2023-04-27T03:53:38.734Z,22.85
2023-04-27T03:55:41.547Z,24.02
2023-04-27T03:57:42.938Z,23.73
2023-04-27T03:59:44.332Z,24.88
2023-04-27T04:01:45.808Z,24.02
2023-04-27T04:03:47.491Z,24.73
2023-04-27T04:05:49.228Z,23.40
2023-04-27T04:07:50.815Z,23.85
2023-04-27T04:09:52.374Z,21.83
2023-04-27T04:11:53.808Z,22.42
2023-04-27T04:13:55.445Z,20.88
2023-04-27T04:16:08.255Z,19.10
2023-04-27T04:18:09.794Z,20.55
2023-04-27T04:20:12.000Z,20.45
2023-04-27T04:22:13.490Z,19.17
2023-04-27T04:24:14.874Z,18.45
2023-04-27T04:26:16.365Z,16.90
2023-04-27T04:28:17.833Z,18.38
2023-04-27T04:30:19.286Z,17.83
2023-04-27T04:32:20.798Z,17.80
2023-04-27T04:34:22.272Z,22.98
2023-04-27T04:36:23.707Z,20.30
2023-04-27T04:38:25.277Z,15.40
2023-04-27T04:40:26.972Z,11.68
2023-04-27T04:42:28.383Z,12.95
2023-04-27T04:44:29.969Z,12.05
2023-04-27T04:46:31.464Z,11.43
2023-04-27T04:48:32.940Z,10.80
2023-04-27T04:50:34.507Z,9.85
2023-04-27T04:52:36.076Z,9.25
2023-04-27T04:54:37.518Z,8.65
2023-04-27T04:56:39.227Z,7.68
2023-04-27T04:58:40.723Z,7.70
2023-04-27T05:00:42.148Z,7.78
2023-04-27T05:02:43.823Z,7.43
2023-04-27T05:04:45.484Z,7.93
2023-04-27T05:06:47.039Z,8.25
2023-04-27T05:08:48.569Z,7.32
2023-04-27T05:10:53.800Z,7.63
2023-04-27T05:12:55.228Z,7.10
2023-04-27T05:14:56.809Z,7.35
2023-04-27T05:16:58.429Z,7.45
2023-04-27T05:18:59.848Z,8.20
2023-04-27T05:21:01.568Z,7.25
2023-04-27T05:23:03.387Z,8.15
2023-04-27T05:25:05.369Z,7.57
2023-04-27T05:27:06.795Z,8.40
2023-04-27T05:29:08.305Z,7.78
2023-04-27T05:31:10.078Z,7.70
2023-04-27T05:33:11.843Z,7.22
2023-04-27T05:35:13.407Z,6.80
2023-04-27T05:37:14.825Z,7.70
2023-04-27T05:39:16.486Z,10.38
2023-04-27T05:41:18.158Z,8.32
2023-04-27T05:43:19.796Z,13.77
2023-04-27T05:45:21.665Z,9.10
2023-04-27T05:47:23.235Z,11.32
2023-04-27T05:49:24.643Z,11.25
2023-04-27T05:51:26.280Z,8.88
2023-04-27T05:53:28.664Z,10.00
2023-04-27T05:55:30.112Z,9.20
2023-04-27T05:57:32.094Z,8.55
2023-04-27T05:59:33.612Z,8.35
2023-04-27T06:01:35.020Z,7.63
2023-04-27T06:03:36.786Z,7.50
2023-04-27T06:05:38.557Z,8.10
2023-04-27T06:07:40.160Z,8.75
2023-04-27T06:09:42.358Z,8.55
2023-04-27T06:11:43.830Z,8.73
2023-04-27T06:13:45.221Z,8.45
2023-04-27T06:15:46.906Z,8.43
2023-04-27T06:17:48.389Z,8.55
2023-04-27T06:19:49.828Z,8.48
2023-04-27T06:21:51.387Z,7.90
2023-04-27T06:23:52.856Z,7.78
2023-04-27T06:25:54.276Z,7.90
2023-04-27T06:27:59.487Z,8.93
2023-04-27T06:30:01.063Z,7.82
2023-04-27T06:32:02.606Z,9.52
2023-04-27T06:34:04.124Z,8.07
2023-04-27T06:36:05.875Z,8.98
2023-04-27T06:38:08.041Z,8.25
2023-04-27T06:40:10.058Z,8.00
2023-04-27T06:42:11.844Z,8.25
2023-04-27T06:44:13.246Z,8.40
2023-04-27T06:46:15.256Z,8.35
2023-04-27T06:48:17.093Z,8.32
2023-04-27T06:50:18.637Z,8.95
2023-04-27T06:52:20.268Z,8.65
2023-04-27T06:54:21.759Z,8.80
2023-04-27T06:56:23.240Z,8.98
2023-04-27T06:58:24.716Z,7.65
2023-04-27T07:00:26.359Z,7.82
2023-04-27T07:02:27.802Z,8.50
2023-04-27T07:04:29.474Z,8.18
2023-04-27T07:06:31.181Z,7.80
2023-04-27T07:08:32.569Z,8.32
2023-04-27T07:10:34.124Z,7.75
2023-04-27T07:12:36.164Z,7.50
2023-04-27T07:14:37.592Z,8.05
2023-04-27T07:16:39.216Z,8.13
2023-04-27T07:18:43.176Z,8.05
2023-04-27T07:20:44.887Z,8.10
2023-04-27T07:22:46.344Z,7.72
2023-04-27T07:24:48.135Z,9.32
2023-04-27T07:26:49.557Z,8.25
2023-04-27T07:28:51.204Z,8.00
2023-04-27T07:30:52.622Z,7.75
2023-04-27T07:32:54.051Z,8.32
2023-04-27T07:34:56.109Z,7.50
2023-04-27T07:36:57.621Z,5.97
2023-04-27T07:38:59.050Z,4.40
2023-04-27T07:41:01.732Z,4.43
2023-04-27T07:43:03.306Z,4.50
2023-04-27T07:45:05.221Z,4.65
2023-04-27T07:47:06.888Z,4.78
2023-04-27T07:49:08.364Z,5.05
2023-04-27T07:51:09.757Z,4.95
2023-04-27T07:53:11.426Z,5.28
2023-04-27T07:55:12.979Z,4.63
2023-04-27T07:57:14.366Z,4.95
2023-04-27T07:59:16.115Z,4.93
2023-04-27T08:01:19.018Z,5.40
2023-04-27T08:03:22.456Z,4.80
2023-04-27T08:05:24.598Z,4.50
2023-04-27T08:07:27.067Z,5.00
2023-04-27T08:09:28.983Z,4.75
2023-04-27T08:11:30.760Z,5.05
2023-04-27T08:13:33.805Z,3.90
2023-04-27T08:15:36.000Z,3.42
2023-04-27T08:17:37.456Z,3.60
2023-04-27T08:19:38.984Z,3.72
2023-04-27T08:21:40.390Z,3.03
2023-04-27T08:23:42.599Z,3.40
2023-04-27T08:25:44.058Z,3.90
2023-04-27T08:27:45.439Z,3.13
2023-04-27T08:29:48.237Z,2.50
2023-04-27T08:31:49.949Z,2.90
2023-04-27T08:33:55.080Z,2.40
2023-04-27T08:35:56.722Z,2.50
2023-04-27T08:37:58.397Z,3.17
2023-04-27T08:39:59.811Z,2.53
2023-04-27T08:42:01.431Z,2.95
2023-04-27T08:44:06.709Z,3.42
2023-04-27T08:46:08.153Z,3.05
2023-04-27T08:48:09.872Z,6.60
2023-04-27T08:50:12.745Z,3.88
2023-04-27T08:52:15.315Z,4.03
2023-04-27T08:54:17.120Z,6.32
2023-04-27T08:56:21.757Z,4.53
2023-04-27T08:58:35.325Z,3.85
2023-04-27T09:00:41.392Z,5.20
2023-04-27T09:02:47.258Z,5.05
2023-04-27T09:04:49.001Z,5.50
2023-04-27T09:06:50.735Z,5.20
2023-04-27T09:08:52.142Z,4.85
2023-04-27T09:10:53.930Z,5.28
2023-04-27T09:12:59.755Z,5.72
2023-04-27T09:15:02.742Z,4.82
2023-04-27T09:17:04.182Z,4.65
2023-04-27T09:19:05.810Z,3.88
2023-04-27T09:21:07.278Z,3.97
2023-04-27T09:23:08.682Z,4.43
2023-04-27T09:25:10.168Z,4.20
2023-04-27T09:27:19.964Z,3.53
2023-04-27T09:29:32.426Z,3.55
2023-04-27T09:31:35.518Z,3.20
2023-04-27T09:33:37.430Z,2.90
2023-04-27T09:35:41.911Z,3.00
2023-04-27T09:37:43.907Z,2.60
2023-04-27T09:39:45.569Z,2.72
2023-04-27T09:41:48.666Z,2.50
2023-04-27T09:43:51.654Z,2.78
2023-04-27T09:45:55.253Z,2.28
2023-04-27T09:47:58.207Z,2.55
2023-04-27T09:50:01.869Z,2.80
2023-04-27T09:54:05.209Z,2.10
2023-04-27T09:56:29.381Z,1.70
2023-04-27T09:58:53.376Z,2.25
2023-04-27T10:01:08.232Z,1.73
2023-04-27T10:03:15.673Z,2.30
2023-04-27T10:06:05.276Z,2.08
2023-04-27T10:08:07.283Z,2.28
2023-04-27T10:10:17.677Z,2.70
2023-04-27T10:12:28.034Z,2.00
2023-04-27T10:14:29.428Z,2.15
2023-04-27T10:16:45.608Z,2.58
2023-04-27T10:18:56.430Z,2.50
2023-04-27T10:21:09.958Z,2.03
2023-04-27T10:23:22.415Z,2.50
2023-04-27T10:25:25.228Z,2.38
2023-04-27T10:27:26.654Z,2.10
2023-04-27T10:29:35.642Z,2.13
2023-04-27T10:31:43.918Z,2.60
2023-04-27T10:33:45.318Z,2.55
2023-04-27T10:35:55.543Z,2.33
2023-04-27T10:38:05.977Z,1.83
2023-04-27T10:40:10.357Z,2.65
2023-04-27T10:42:11.872Z,2.20
2023-04-27T10:44:16.211Z,2.22
2023-04-27T10:46:17.631Z,2.03
2023-04-27T10:48:19.373Z,1.90
2023-04-27T10:50:22.467Z,2.03
2023-04-27T10:52:23.907Z,2.33
2023-04-27T10:54:28.240Z,1.92
2023-04-27T10:56:29.820Z,1.70
2023-04-27T10:58:41.559Z,1.70
2023-04-27T11:00:50.118Z,2.10
2023-04-27T11:02:53.197Z,1.67
2023-04-27T11:04:56.262Z,1.92
2023-04-27T11:06:57.992Z,1.80
2023-04-27T11:08:59.714Z,2.17
2023-04-27T11:11:01.212Z,2.00
2023-04-27T11:13:14.696Z,2.10
2023-04-27T11:15:16.341Z,1.98
2023-04-27T11:17:28.989Z,2.10
2023-04-27T11:19:31.107Z,2.63
2023-04-27T11:21:32.684Z,2.22
2023-04-27T11:23:34.769Z,2.22
2023-04-27T11:25:36.568Z,2.42
2023-04-27T11:27:39.936Z,2.50
2023-04-27T11:29:41.362Z,2.30
2023-04-27T11:31:45.460Z,2.20
2023-04-27T11:33:50.089Z,2.20
2023-04-27T11:35:51.549Z,2.25
2023-04-27T11:37:58.745Z,2.88
2023-04-27T11:40:00.439Z,2.10
2023-04-27T11:42:22.339Z,2.05
2023-04-27T11:44:27.105Z,2.03
2023-04-27T11:46:28.590Z,2.05
2023-04-27T11:48:30.316Z,2.00
2023-04-27T11:50:31.781Z,2.13
2023-04-27T11:52:35.647Z,2.08
2023-04-27T11:54:37.381Z,2.10
2023-04-27T11:56:41.371Z,2.28
2023-04-27T11:58:44.386Z,2.17
2023-04-27T12:00:47.556Z,2.38
2023-04-27T12:02:49.229Z,2.15
2023-04-27T12:04:51.695Z,2.47
2023-04-27T12:06:53.313Z,2.80
2023-04-27T12:08:56.581Z,2.30
2023-04-27T12:10:58.524Z,2.33
2023-04-27T12:12:59.908Z,2.20
2023-04-27T12:15:01.799Z,3.40
2023-04-27T12:17:03.445Z,3.78
2023-04-27T12:19:04.927Z,2.33
2023-04-27T12:21:08.219Z,2.60
2023-04-27T12:23:10.228Z,2.70
2023-04-27T12:25:11.665Z,2.38
2023-04-27T12:27:13.271Z,5.82
2023-04-27T12:29:15.199Z,5.15
2023-04-27T12:31:16.648Z,3.47
2023-04-27T12:33:18.318Z,4.03
2023-04-27T12:35:19.989Z,2.72
2023-04-27T12:37:21.400Z,3.42
2023-04-27T12:39:23.974Z,2.55
2023-04-27T12:41:25.983Z,6.95
2023-04-27T12:43:27.907Z,6.43
2023-04-27T12:45:29.564Z,7.22
2023-04-27T12:49:35.400Z,8.95
2023-04-27T12:51:37.539Z,4.30
2023-04-27T12:53:39.025Z,6.15
2023-04-27T12:55:40.474Z,5.15
2023-04-27T12:57:42.093Z,3.35
2023-04-27T12:59:43.809Z,3.10
2023-04-27T13:01:45.352Z,4.43
2023-04-27T13:03:47.817Z,2.50
2023-04-27T13:05:49.654Z,2.80
2023-04-27T13:07:52.571Z,2.40
2023-04-27T13:09:53.985Z,5.22
2023-04-27T13:11:55.787Z,2.42
2023-04-27T13:13:57.185Z,2.17
2023-04-27T13:15:58.727Z,2.40
2023-04-27T13:18:00.263Z,2.33
2023-04-27T13:20:01.801Z,2.38
2023-04-27T13:22:03.533Z,3.10
2023-04-27T13:24:05.703Z,3.17
2023-04-27T13:26:07.102Z,3.72
2023-04-27T13:28:08.840Z,2.72
2023-04-27T13:30:10.836Z,3.17
2023-04-27T13:32:12.274Z,2.75
2023-04-27T13:34:14.052Z,2.35
2023-04-27T13:36:15.754Z,2.67
2023-04-27T13:38:17.185Z,4.07
2023-04-27T13:40:19.129Z,2.60
2023-04-27T13:42:20.533Z,2.70
2023-04-27T13:44:21.920Z,2.30
2023-04-27T13:46:23.443Z,2.78
2023-04-27T13:48:25.072Z,3.17
2023-04-27T13:50:26.591Z,3.60
2023-04-27T13:52:28.145Z,3.80
2023-04-27T13:54:29.662Z,2.75
2023-04-27T13:56:31.110Z,2.00
2023-04-27T13:58:32.763Z,1.98
2023-04-27T14:00:34.511Z,2.60
2023-04-27T14:02:36.301Z,2.60
2023-04-27T14:04:38.187Z,3.70
2023-04-27T14:06:39.821Z,1.92
2023-04-27T14:08:41.235Z,1.70
2023-04-27T14:10:44.360Z,4.13
2023-04-27T14:12:45.894Z,4.07
2023-04-27T14:14:47.319Z,3.22
2023-04-27T14:16:49.063Z,8.75
2023-04-27T14:18:50.762Z,6.38
2023-04-27T14:20:52.217Z,7.18
2023-04-27T14:22:55.398Z,4.18
2023-04-27T14:24:58.297Z,3.60
2023-04-27T14:26:59.712Z,3.55
2023-04-27T14:29:01.112Z,4.53
2023-04-27T14:31:02.688Z,2.72
2023-04-27T14:33:04.141Z,4.70
2023-04-27T14:35:06.024Z,4.93
2023-04-27T14:37:07.531Z,15.38
2023-04-27T14:39:08.996Z,14.30
2023-04-27T14:41:10.394Z,39.28
2023-04-27T14:43:11.934Z,25.45
2023-04-27T14:45:13.444Z,35.45
2023-04-27T14:47:14.845Z,43.60
2023-04-27T14:49:17.051Z,20.55
2023-04-27T14:51:18.724Z,11.55
2023-04-27T14:53:20.669Z,10.15
2023-04-27T14:55:22.205Z,4.10
2023-04-27T14:57:23.644Z,12.35
2023-04-27T14:59:25.064Z,8.43
2023-04-27T15:01:26.582Z,8.45
2023-04-27T15:03:28.683Z,4.63
2023-04-27T15:05:30.310Z,7.20
2023-04-27T15:07:31.836Z,8.68
2023-04-27T15:09:34.035Z,8.77
2023-04-27T15:11:35.614Z,8.98
2023-04-27T15:13:37.183Z,6.78
2023-04-27T15:15:38.616Z,2.85
2023-04-27T15:17:40.274Z,3.53
2023-04-27T15:19:41.706Z,5.00
2023-04-27T15:21:43.062Z,3.40
2023-04-27T15:23:44.528Z,3.97
2023-04-27T15:25:47.530Z,2.92
2023-04-27T15:27:48.936Z,3.10
2023-04-27T15:29:50.349Z,3.40
2023-04-27T15:31:51.752Z,4.40
2023-04-27T15:33:53.151Z,3.42
2023-04-27T15:35:54.665Z,4.53
2023-04-27T15:37:56.100Z,3.05
2023-04-27T15:39:57.514Z,3.38
2023-04-27T15:41:58.993Z,3.50
2023-04-27T15:44:00.497Z,4.43
2023-04-27T15:46:05.069Z,2.38
2023-04-27T15:48:06.711Z,2.80
2023-04-27T15:50:08.397Z,3.72
2023-04-27T15:52:09.819Z,4.32
2023-04-27T15:54:11.397Z,5.78
2023-04-27T15:56:12.863Z,7.10
2023-04-27T15:58:15.453Z,4.45
2023-04-27T16:00:17.274Z,4.43
2023-04-27T16:02:18.949Z,5.53
2023-04-27T16:04:20.538Z,5.43
2023-04-27T16:06:22.343Z,6.60
2023-04-27T16:08:23.904Z,5.00
2023-04-27T16:10:25.666Z,5.93
2023-04-27T16:12:27.390Z,5.80
2023-04-27T16:14:29.086Z,3.40
2023-04-27T16:16:30.557Z,4.10
2023-04-27T16:18:32.149Z,5.70
2023-04-27T16:20:36.246Z,4.07
2023-04-27T16:22:38.289Z,5.95
2023-04-27T16:24:39.819Z,4.45
2023-04-27T16:26:41.331Z,7.20
2023-04-27T16:28:43.046Z,8.80
2023-04-27T16:30:44.697Z,7.80
2023-04-27T16:32:46.141Z,7.80
2023-04-27T16:34:47.658Z,6.47
2023-04-27T16:36:49.247Z,4.05
2023-04-27T16:38:50.729Z,3.90
2023-04-27T16:40:52.175Z,2.90
2023-04-27T16:42:53.570Z,4.25
2023-04-27T16:44:55.138Z,4.55
2023-04-27T16:46:56.757Z,5.80
2023-04-27T16:48:58.271Z,3.63
2023-04-27T16:50:59.837Z,4.18
2023-04-27T16:53:19.472Z,4.80
2023-04-27T16:55:20.860Z,4.32
2023-04-27T16:57:22.365Z,3.78
2023-04-27T16:59:23.803Z,3.33
2023-04-27T17:01:25.438Z,5.32
2023-04-27T17:03:27.218Z,3.95
2023-04-27T17:05:28.728Z,5.50
2023-04-27T17:07:30.351Z,4.40
2023-04-27T17:09:31.809Z,7.82
2023-04-27T17:11:33.292Z,4.65
2023-04-27T17:13:35.046Z,10.00
2023-04-27T17:15:36.468Z,10.32
2023-04-27T17:17:38.171Z,12.88
2023-04-27T17:19:39.707Z,11.45
2023-04-27T17:21:41.368Z,8.20
2023-04-27T17:23:42.789Z,5.03
2023-04-27T17:25:44.404Z,5.22
2023-04-27T17:27:45.883Z,5.00
2023-04-27T17:29:47.815Z,4.20
2023-04-27T17:31:49.365Z,4.07
2023-04-27T17:33:50.924Z,14.15
2023-04-27T17:35:52.336Z,3.97
2023-04-27T17:37:53.877Z,4.18
2023-04-27T17:39:55.403Z,3.25
2023-04-27T17:41:56.976Z,3.92
2023-04-27T17:43:58.590Z,3.10
2023-04-27T17:46:00.010Z,4.45
2023-04-27T17:48:01.665Z,7.97
2023-04-27T17:50:03.672Z,11.20
2023-04-27T17:52:05.585Z,11.93
2023-04-27T17:54:07.107Z,16.58
2023-04-27T17:56:08.594Z,18.35
2023-04-27T17:58:09.970Z,24.65
2023-04-27T18:00:11.858Z,65.43
2023-04-27T18:02:13.551Z,47.83
2023-04-27T18:04:15.109Z,29.65
2023-04-27T18:06:16.711Z,28.60
2023-04-27T18:08:18.300Z,109.13
2023-04-27T18:10:19.744Z,56.60
2023-04-27T18:12:21.367Z,176.85
2023-04-27T18:14:22.891Z,78.03
2023-04-27T18:16:24.590Z,34.38
2023-04-27T18:18:26.241Z,49.28
2023-04-27T18:20:28.069Z,25.80
2023-04-27T18:22:29.494Z,12.75
2023-04-27T18:24:31.075Z,16.05
2023-04-27T18:26:34.936Z,36.63
2023-04-27T18:28:36.436Z,36.70
2023-04-27T18:30:37.913Z,24.38
2023-04-27T18:32:39.313Z,37.40
2023-04-27T18:34:40.791Z,34.17
2023-04-27T18:36:42.324Z,25.90
2023-04-27T18:38:43.784Z,215.98
2023-04-27T18:40:45.188Z,35.95
2023-04-27T18:42:47.000Z,19.98
2023-04-27T18:44:48.469Z,16.80
2023-04-27T18:46:49.902Z,42.58
2023-04-27T18:48:51.394Z,61.42
2023-04-27T18:50:52.793Z,56.70
2023-04-27T18:52:54.177Z,161.73
2023-04-27T18:54:55.680Z,47.97
2023-04-27T18:56:57.088Z,39.88
2023-04-27T18:58:58.523Z,30.45
2023-04-27T19:01:00.010Z,30.83
2023-04-27T19:03:01.651Z,33.70
2023-04-27T19:05:12.110Z,25.25
2023-04-27T19:07:14.798Z,27.02
2023-04-27T19:09:16.500Z,29.83
2023-04-27T19:11:17.988Z,34.83
2023-04-27T19:13:19.511Z,31.50
2023-04-27T19:15:21.068Z,28.42
2023-04-27T19:17:22.715Z,39.75
2023-04-27T19:19:24.364Z,82.72
2023-04-27T19:21:25.791Z,27.08
2023-04-27T19:23:27.352Z,13.68
2023-04-27T19:25:28.896Z,24.23
2023-04-27T19:27:30.328Z,24.23
2023-04-27T19:29:31.741Z,65.05
2023-04-27T19:31:33.325Z,69.05
2023-04-27T19:33:34.796Z,66.68
2023-04-27T19:35:36.224Z,101.57
2023-04-27T19:37:40.815Z,80.65
2023-04-27T19:39:42.274Z,48.78
2023-04-27T19:41:43.688Z,35.92
2023-04-27T19:43:45.191Z,85.32
2023-04-27T19:45:46.774Z,30.15
2023-04-27T19:47:48.234Z,30.85
2023-04-27T19:49:49.744Z,66.97
2023-04-27T19:51:51.187Z,29.52
2023-04-27T19:53:52.660Z,24.77
2023-04-27T19:55:54.635Z,22.33
2023-04-27T19:57:56.045Z,26.02
2023-04-27T19:59:57.446Z,36.75
2023-04-27T20:01:59.170Z,33.03
2023-04-27T20:04:00.931Z,35.30
2023-04-27T20:06:02.969Z,35.70
2023-04-27T20:08:04.696Z,42.45
2023-04-27T20:10:06.766Z,47.00
2023-04-27T20:12:19.428Z,27.95
2023-04-27T20:14:31.154Z,29.25
2023-04-27T20:16:32.904Z,15.48
2023-04-27T20:18:34.305Z,13.80
2023-04-27T20:20:35.856Z,10.05
2023-04-27T20:22:38.534Z,27.05
2023-04-27T20:24:39.928Z,79.38
2023-04-27T20:26:41.564Z,64.38
2023-04-27T20:28:43.002Z,85.32
2023-04-27T20:30:44.489Z,120.82
2023-04-27T20:32:46.031Z,115.20
2023-04-27T20:34:47.561Z,114.28
2023-04-27T20:36:48.980Z,104.32
2023-04-27T20:38:50.514Z,99.30
2023-04-27T20:40:52.809Z,86.80
2023-04-27T20:42:54.215Z,72.43
2023-04-27T20:44:55.714Z,62.80
2023-04-27T20:46:57.220Z,62.85
2023-04-27T20:48:58.603Z,58.42
2023-04-27T20:51:00.132Z,59.17
2023-04-27T20:53:01.644Z,55.95
2023-04-27T20:55:04.414Z,50.90
2023-04-27T20:57:05.918Z,55.67
2023-04-27T20:59:07.906Z,53.90
2023-04-27T21:01:09.542Z,56.97
2023-04-27T21:03:11.278Z,53.38
2023-04-27T21:05:12.775Z,47.33
2023-04-27T21:07:14.222Z,50.55
2023-04-27T21:09:15.727Z,53.60
2023-04-27T21:11:18.170Z,49.67
2023-04-27T21:13:19.768Z,55.63
2023-04-27T21:15:21.354Z,53.95
2023-04-27T21:17:22.855Z,53.05
2023-04-27T21:19:24.248Z,55.58
2023-04-27T21:21:25.649Z,50.83
2023-04-27T21:23:27.116Z,44.53
2023-04-27T21:25:28.509Z,43.33
2023-04-27T21:27:30.747Z,42.38
2023-04-27T21:29:34.681Z,42.28
2023-04-27T21:31:36.103Z,41.53
2023-04-27T21:33:37.663Z,41.08
2023-04-27T21:35:39.178Z,40.55
2023-04-27T21:37:40.606Z,38.40
2023-04-27T21:39:42.379Z,40.33
2023-04-27T21:41:43.839Z,37.25
2023-04-27T21:43:45.258Z,71.47
2023-04-27T21:45:46.894Z,53.85
2023-04-27T21:47:48.399Z,34.17
2023-04-27T21:49:51.184Z,35.65
2023-04-27T21:51:53.895Z,39.55
2023-04-27T21:53:55.437Z,38.50
2023-04-27T21:55:57.046Z,33.70
2023-04-27T21:57:58.544Z,38.55
2023-04-27T22:00:00.195Z,28.10
2023-04-27T22:02:01.737Z,33.40
2023-04-27T22:04:04.091Z,31.00
2023-04-27T22:06:05.812Z,30.88
2023-04-27T22:08:07.208Z,35.65
2023-04-27T22:10:09.216Z,27.42
2023-04-27T22:12:10.656Z,31.65
2023-04-27T22:14:12.071Z,21.88
2023-04-27T22:16:14.005Z,14.75
2023-04-27T22:18:15.794Z,16.45
2023-04-27T22:20:17.333Z,18.25
2023-04-27T22:22:18.868Z,15.88
2023-04-27T22:24:20.561Z,13.60
2023-04-27T22:26:22.054Z,14.55
2023-04-27T22:28:23.472Z,17.67
2023-04-27T22:30:25.246Z,16.50
2023-04-27T22:32:26.782Z,16.90
2023-04-27T22:34:28.247Z,15.05
2023-04-27T22:36:29.904Z,16.15
2023-04-27T22:38:31.505Z,16.45
2023-04-27T22:40:32.914Z,16.60
2023-04-27T22:42:34.603Z,16.75
2023-04-27T22:44:36.027Z,14.43
2023-04-27T22:46:37.502Z,14.20
2023-04-27T22:48:39.449Z,13.50
2023-04-27T22:50:40.854Z,12.48
2023-04-27T22:52:42.569Z,13.82
2023-04-27T22:54:44.079Z,14.52
2023-04-27T22:56:45.527Z,19.60
2023-04-27T22:58:47.015Z,51.00
2023-04-27T23:00:48.597Z,109.32
2023-04-27T23:02:50.200Z,64.88
2023-04-27T23:04:51.996Z,78.82
2023-04-27T23:06:53.591Z,50.20
2023-04-27T23:08:54.985Z,42.67
2023-04-27T23:10:56.635Z,51.22
2023-04-27T23:12:58.235Z,54.22
2023-04-27T23:14:59.688Z,41.38
2023-04-27T23:17:01.219Z,31.83
2023-04-27T23:19:02.872Z,20.60
2023-04-27T23:21:04.308Z,16.08
2023-04-27T23:23:05.790Z,14.60
2023-04-27T23:25:07.674Z,15.13
2023-04-27T23:27:09.078Z,16.52
2023-04-27T23:29:10.495Z,16.92
2023-04-27T23:31:12.191Z,16.17
2023-04-27T23:33:13.620Z,13.23
2023-04-27T23:35:15.211Z,26.75
2023-04-27T23:37:16.872Z,44.08
2023-04-27T23:39:18.288Z,30.40
2023-04-27T23:41:19.902Z,22.38
2023-04-27T23:43:21.481Z,19.98
2023-04-27T23:45:22.909Z,23.20
2023-04-27T23:47:24.474Z,27.75
2023-04-27T23:49:26.098Z,26.63
2023-04-27T23:51:27.546Z,24.20
2023-04-27T23:53:29.018Z,22.55
2023-04-27T23:55:30.664Z,18.70
2023-04-27T23:57:32.085Z,19.23
2023-04-27T23:59:34.435Z,21.65
